sensor_id;sensor_type;location;lat;lon;timestamp;P1;durP1;ratioP1;P2;durP2;ratioP2
25721;SDS011;13578;53.450;15.496;2023-04-01T00:02:14;2.55;;;2.00;;
25721;SDS011;13578;53.450;15.496;2023-04-01T00:05:15;2.70;;;2.10;;
25721;SDS011;13578;53.450;15.496;2023-04-01T00:08:19;4.70;;;2.58;;
25721;SDS011;13578;53.450;15.496;2023-04-01T00:11:20;6.00;;;3.05;;
25721;SDS011;13578;53.450;15.496;2023-04-01T00:14:21;3.28;;;2.35;;
25721;SDS011;13578;53.450;15.496;2023-04-01T00:17:22;3.72;;;2.20;;
25721;SDS011;13578;53.450;15.496;2023-04-01T00:20:22;3.58;;;2.70;;
25721;SDS011;13578;53.450;15.496;2023-04-01T00:23:23;7.10;;;3.75;;
25721;SDS011;13578;53.450;15.496;2023-04-01T00:26:24;7.63;;;3.83;;
25721;SDS011;13578;53.450;15.496;2023-04-01T00:29:25;7.25;;;5.18;;
25721;SDS011;13578;53.450;15.496;2023-04-01T00:32:29;8.63;;;4.93;;
25721;SDS011;13578;53.450;15.496;2023-04-01T00:35:31;13.07;;;5.80;;
25721;SDS011;13578;53.450;15.496;2023-04-01T00:38:32;11.15;;;5.68;;
25721;SDS011;13578;53.450;15.496;2023-04-01T00:41:33;9.48;;;6.47;;
25721;SDS011;13578;53.450;15.496;2023-04-01T00:44:33;14.35;;;6.45;;
25721;SDS011;13578;53.450;15.496;2023-04-01T00:47:34;10.05;;;6.07;;
25721;SDS011;13578;53.450;15.496;2023-04-01T00:50:35;12.95;;;6.38;;
25721;SDS011;13578;53.450;15.496;2023-04-01T00:53:40;10.57;;;6.63;;
25721;SDS011;13578;53.450;15.496;2023-04-01T00:56:45;11.13;;;6.50;;
25721;SDS011;13578;53.450;15.496;2023-04-01T00:59:55;10.80;;;5.97;;
25721;SDS011;13578;53.450;15.496;2023-04-01T01:02:56;11.18;;;6.80;;
25721;SDS011;13578;53.450;15.496;2023-04-01T01:19:32;15.23;;;5.50;;
25721;SDS011;13578;53.450;15.496;2023-04-01T01:26:34;14.82;;;8.25;;
25721;SDS011;13578;53.450;15.496;2023-04-01T01:33:06;16.15;;;10.05;;
25721;SDS011;13578;53.450;15.496;2023-04-01T01:36:17;21.92;;;11.05;;
25721;SDS011;13578;53.450;15.496;2023-04-01T01:39:21;17.30;;;9.75;;
25721;SDS011;13578;53.450;15.496;2023-04-01T01:42:28;17.63;;;9.60;;
25721;SDS011;13578;53.450;15.496;2023-04-01T01:45:32;18.38;;;10.45;;
25721;SDS011;13578;53.450;15.496;2023-04-01T01:48:36;19.00;;;9.23;;
25721;SDS011;13578;53.450;15.496;2023-04-01T01:51:37;21.08;;;8.90;;
25721;SDS011;13578;53.450;15.496;2023-04-01T01:54:49;19.30;;;9.77;;
25721;SDS011;13578;53.450;15.496;2023-04-01T01:57:51;19.45;;;9.98;;
25721;SDS011;13578;53.450;15.496;2023-04-01T02:00:53;20.98;;;9.18;;
25721;SDS011;13578;53.450;15.496;2023-04-01T02:03:57;18.98;;;9.98;;
25721;SDS011;13578;53.450;15.496;2023-04-01T02:07:02;18.23;;;8.82;;
25721;SDS011;13578;53.450;15.496;2023-04-01T02:10:05;18.63;;;8.38;;
25721;SDS011;13578;53.450;15.496;2023-04-01T02:13:08;20.15;;;8.88;;
25721;SDS011;13578;53.450;15.496;2023-04-01T02:16:23;11.77;;;8.38;;
25721;SDS011;13578;53.450;15.496;2023-04-01T02:19:34;16.45;;;8.52;;
25721;SDS011;13578;53.450;15.496;2023-04-01T02:22:39;16.38;;;7.70;;
25721;SDS011;13578;53.450;15.496;2023-04-01T02:25:42;14.70;;;8.98;;
25721;SDS011;13578;53.450;15.496;2023-04-01T02:28:45;18.10;;;8.38;;
25721;SDS011;13578;53.450;15.496;2023-04-01T02:31:48;13.88;;;8.27;;
25721;SDS011;13578;53.450;15.496;2023-04-01T02:34:50;16.80;;;8.88;;
25721;SDS011;13578;53.450;15.496;2023-04-01T02:37:52;13.30;;;8.13;;
25721;SDS011;13578;53.450;15.496;2023-04-01T02:40:59;15.30;;;8.93;;
25721;SDS011;13578;53.450;15.496;2023-04-01T02:44:01;12.38;;;7.43;;
25721;SDS011;13578;53.450;15.496;2023-04-01T02:47:01;18.10;;;9.02;;
25721;SDS011;13578;53.450;15.496;2023-04-01T02:50:03;16.90;;;9.65;;
25721;SDS011;13578;53.450;15.496;2023-04-01T02:53:04;18.30;;;10.52;;
25721;SDS011;13578;53.450;15.496;2023-04-01T02:56:06;14.65;;;9.60;;
25721;SDS011;13578;53.450;15.496;2023-04-01T02:59:07;17.95;;;10.13;;
25721;SDS011;13578;53.450;15.496;2023-04-01T03:02:07;16.77;;;10.02;;
25721;SDS011;13578;53.450;15.496;2023-04-01T03:05:08;21.30;;;10.63;;
25721;SDS011;13578;53.450;15.496;2023-04-01T03:08:09;19.15;;;10.13;;
25721;SDS011;13578;53.450;15.496;2023-04-01T03:11:10;14.45;;;8.95;;
25721;SDS011;13578;53.450;15.496;2023-04-01T03:14:11;24.15;;;9.32;;
25721;SDS011;13578;53.450;15.496;2023-04-01T03:17:12;27.27;;;11.23;;
25721;SDS011;13578;53.450;15.496;2023-04-01T03:20:13;24.33;;;11.00;;
25721;SDS011;13578;53.450;15.496;2023-04-01T03:23:15;15.20;;;9.52;;
25721;SDS011;13578;53.450;15.496;2023-04-01T03:26:17;15.18;;;10.20;;
25721;SDS011;13578;53.450;15.496;2023-04-01T03:29:18;16.98;;;9.48;;
25721;SDS011;13578;53.450;15.496;2023-04-01T03:32:18;20.25;;;10.52;;
25721;SDS011;13578;53.450;15.496;2023-04-01T03:35:19;21.10;;;9.45;;
25721;SDS011;13578;53.450;15.496;2023-04-01T03:38:20;14.75;;;9.40;;
25721;SDS011;13578;53.450;15.496;2023-04-01T03:41:21;20.52;;;9.50;;
25721;SDS011;13578;53.450;15.496;2023-04-01T03:44:21;22.58;;;10.05;;
25721;SDS011;13578;53.450;15.496;2023-04-01T03:47:22;28.30;;;10.60;;
25721;SDS011;13578;53.450;15.496;2023-04-01T03:50:23;18.35;;;10.60;;
25721;SDS011;13578;53.450;15.496;2023-04-01T03:53:23;20.10;;;9.73;;
25721;SDS011;13578;53.450;15.496;2023-04-01T03:56:24;18.20;;;8.65;;
25721;SDS011;13578;53.450;15.496;2023-04-01T03:59:25;24.58;;;10.00;;
25721;SDS011;13578;53.450;15.496;2023-04-01T04:02:26;16.70;;;9.80;;
25721;SDS011;13578;53.450;15.496;2023-04-01T04:05:26;17.10;;;9.30;;
25721;SDS011;13578;53.450;15.496;2023-04-01T04:08:27;15.80;;;9.50;;
25721;SDS011;13578;53.450;15.496;2023-04-01T04:11:28;16.40;;;9.63;;
25721;SDS011;13578;53.450;15.496;2023-04-01T04:14:32;15.93;;;9.07;;
25721;SDS011;13578;53.450;15.496;2023-04-01T04:17:33;23.45;;;10.35;;
25721;SDS011;13578;53.450;15.496;2023-04-01T04:20:33;14.38;;;9.15;;
25721;SDS011;13578;53.450;15.496;2023-04-01T04:23:35;17.95;;;9.82;;
25721;SDS011;13578;53.450;15.496;2023-04-01T04:26:37;19.00;;;9.07;;
25721;SDS011;13578;53.450;15.496;2023-04-01T04:29:37;20.33;;;9.75;;
25721;SDS011;13578;53.450;15.496;2023-04-01T04:32:38;14.38;;;8.68;;
25721;SDS011;13578;53.450;15.496;2023-04-01T04:35:40;13.90;;;8.40;;
25721;SDS011;13578;53.450;15.496;2023-04-01T04:38:41;21.42;;;9.15;;
25721;SDS011;13578;53.450;15.496;2023-04-01T04:41:42;13.05;;;8.98;;
25721;SDS011;13578;53.450;15.496;2023-04-01T04:44:42;17.30;;;9.15;;
25721;SDS011;13578;53.450;15.496;2023-04-01T04:47:43;14.85;;;9.25;;
25721;SDS011;13578;53.450;15.496;2023-04-01T04:50:44;12.18;;;8.32;;
25721;SDS011;13578;53.450;15.496;2023-04-01T04:53:46;15.60;;;9.95;;
25721;SDS011;13578;53.450;15.496;2023-04-01T04:56:47;17.73;;;9.75;;
25721;SDS011;13578;53.450;15.496;2023-04-01T04:59:48;15.68;;;9.90;;
25721;SDS011;13578;53.450;15.496;2023-04-01T05:02:48;11.38;;;7.53;;
25721;SDS011;13578;53.450;15.496;2023-04-01T05:05:50;11.57;;;8.80;;
25721;SDS011;13578;53.450;15.496;2023-04-01T05:08:52;15.88;;;8.80;;
25721;SDS011;13578;53.450;15.496;2023-04-01T05:11:52;14.40;;;9.10;;
25721;SDS011;13578;53.450;15.496;2023-04-01T05:14:53;10.38;;;8.15;;
25721;SDS011;13578;53.450;15.496;2023-04-01T05:17:53;12.85;;;8.95;;
25721;SDS011;13578;53.450;15.496;2023-04-01T05:20:54;17.58;;;8.35;;
25721;SDS011;13578;53.450;15.496;2023-04-01T05:23:55;13.75;;;8.45;;
25721;SDS011;13578;53.450;15.496;2023-04-01T05:26:56;13.30;;;8.25;;
25721;SDS011;13578;53.450;15.496;2023-04-01T05:29:57;13.23;;;7.30;;
25721;SDS011;13578;53.450;15.496;2023-04-01T05:32:58;11.30;;;7.18;;
25721;SDS011;13578;53.450;15.496;2023-04-01T05:36:19;9.20;;;7.22;;
25721;SDS011;13578;53.450;15.496;2023-04-01T05:39:19;7.40;;;5.97;;
25721;SDS011;13578;53.450;15.496;2023-04-01T05:42:20;7.80;;;6.43;;
25721;SDS011;13578;53.450;15.496;2023-04-01T05:45:21;8.48;;;6.03;;
25721;SDS011;13578;53.450;15.496;2023-04-01T05:48:23;11.43;;;7.40;;
25721;SDS011;13578;53.450;15.496;2023-04-01T05:51:23;8.98;;;6.50;;
25721;SDS011;13578;53.450;15.496;2023-04-01T05:54:24;8.70;;;7.05;;
25721;SDS011;13578;53.450;15.496;2023-04-01T05:57:25;9.18;;;7.10;;
25721;SDS011;13578;53.450;15.496;2023-04-01T06:00:26;8.88;;;6.47;;
25721;SDS011;13578;53.450;15.496;2023-04-01T06:03:27;8.23;;;6.57;;
25721;SDS011;13578;53.450;15.496;2023-04-01T06:06:28;8.10;;;6.38;;
25721;SDS011;13578;53.450;15.496;2023-04-01T06:09:30;15.82;;;7.10;;
25721;SDS011;13578;53.450;15.496;2023-04-01T06:22:45;8.10;;;5.45;;
25721;SDS011;13578;53.450;15.496;2023-04-01T06:49:02;7.00;;;4.95;;
25721;SDS011;13578;53.450;15.496;2023-04-01T06:52:23;7.00;;;5.50;;
25721;SDS011;13578;53.450;15.496;2023-04-01T06:55:41;7.35;;;5.13;;
25721;SDS011;13578;53.450;15.496;2023-04-01T06:58:50;12.43;;;5.18;;
25721;SDS011;13578;53.450;15.496;2023-04-01T07:01:58;5.80;;;4.25;;
25721;SDS011;13578;53.450;15.496;2023-04-01T07:05:10;6.07;;;5.15;;
25721;SDS011;13578;53.450;15.496;2023-04-01T07:08:13;9.70;;;5.22;;
25721;SDS011;13578;53.450;15.496;2023-04-01T07:11:25;7.60;;;4.82;;
25721;SDS011;13578;53.450;15.496;2023-04-01T07:14:39;7.22;;;5.45;;
25721;SDS011;13578;53.450;15.496;2023-04-01T07:17:42;6.60;;;5.40;;
25721;SDS011;13578;53.450;15.496;2023-04-01T07:20:46;9.13;;;5.93;;
25721;SDS011;13578;53.450;15.496;2023-04-01T07:23:47;6.82;;;5.47;;
25721;SDS011;13578;53.450;15.496;2023-04-01T07:26:49;7.03;;;5.68;;
25721;SDS011;13578;53.450;15.496;2023-04-01T07:29:57;10.27;;;5.82;;
25721;SDS011;13578;53.450;15.496;2023-04-01T07:33:04;7.00;;;5.45;;
25721;SDS011;13578;53.450;15.496;2023-04-01T07:53:16;9.38;;;6.28;;
25721;SDS011;13578;53.450;15.496;2023-04-01T07:59:58;11.05;;;6.13;;
25721;SDS011;13578;53.450;15.496;2023-04-01T08:16:09;9.93;;;6.55;;
25721;SDS011;13578;53.450;15.496;2023-04-01T08:19:31;9.57;;;7.15;;
25721;SDS011;13578;53.450;15.496;2023-04-01T08:23:07;12.18;;;6.72;;
25721;SDS011;13578;53.450;15.496;2023-04-01T08:26:24;6.85;;;5.47;;
25721;SDS011;13578;53.450;15.496;2023-04-01T08:29:44;10.80;;;5.72;;
25721;SDS011;13578;53.450;15.496;2023-04-01T08:33:00;6.70;;;5.20;;
25721;SDS011;13578;53.450;15.496;2023-04-01T08:36:17;6.68;;;5.25;;
25721;SDS011;13578;53.450;15.496;2023-04-01T08:39:29;5.50;;;4.82;;
25721;SDS011;13578;53.450;15.496;2023-04-01T08:52:35;12.20;;;6.47;;
25721;SDS011;13578;53.450;15.496;2023-04-01T08:55:38;8.70;;;6.22;;
25721;SDS011;13578;53.450;15.496;2023-04-01T09:12:51;6.75;;;3.95;;
25721;SDS011;13578;53.450;15.496;2023-04-01T09:25:58;4.10;;;3.65;;
25721;SDS011;13578;53.450;15.496;2023-04-01T09:39:42;5.82;;;4.18;;
25721;SDS011;13578;53.450;15.496;2023-04-01T09:50:27;6.90;;;4.00;;
25721;SDS011;13578;53.450;15.496;2023-04-01T10:00:50;4.43;;;4.03;;
25721;SDS011;13578;53.450;15.496;2023-04-01T10:21:02;8.73;;;4.13;;
25721;SDS011;13578;53.450;15.496;2023-04-01T10:24:17;4.47;;;3.15;;
25721;SDS011;13578;53.450;15.496;2023-04-01T10:41:30;6.57;;;4.60;;
25721;SDS011;13578;53.450;15.496;2023-04-01T10:48:23;5.00;;;3.97;;
25721;SDS011;13578;53.450;15.496;2023-04-01T11:25:18;5.25;;;3.90;;
25721;SDS011;13578;53.450;15.496;2023-04-01T11:35:55;5.72;;;4.30;;
25721;SDS011;13578;53.450;15.496;2023-04-01T11:42:24;5.13;;;4.22;;
25721;SDS011;13578;53.450;15.496;2023-04-01T11:45:33;5.50;;;4.50;;
25721;SDS011;13578;53.450;15.496;2023-04-01T11:48:41;4.20;;;3.80;;
25721;SDS011;13578;53.450;15.496;2023-04-01T11:58:31;8.90;;;4.75;;
25721;SDS011;13578;53.450;15.496;2023-04-01T12:22:35;5.47;;;4.68;;
25721;SDS011;13578;53.450;15.496;2023-04-01T12:32:40;6.57;;;4.20;;
25721;SDS011;13578;53.450;15.496;2023-04-01T12:35:56;4.60;;;3.92;;
25721;SDS011;13578;53.450;15.496;2023-04-01T12:39:22;5.43;;;3.92;;
25721;SDS011;13578;53.450;15.496;2023-04-01T12:45:57;6.65;;;3.80;;
25721;SDS011;13578;53.450;15.496;2023-04-01T12:52:41;10.32;;;4.57;;
25721;SDS011;13578;53.450;15.496;2023-04-01T12:56:03;5.80;;;4.35;;
25721;SDS011;13578;53.450;15.496;2023-04-01T13:03:27;9.30;;;4.75;;
25721;SDS011;13578;53.450;15.496;2023-04-01T13:21:03;11.13;;;4.95;;
25721;SDS011;13578;53.450;15.496;2023-04-01T13:23:49;12.23;;;4.65;;
25721;SDS011;13578;53.450;15.496;2023-04-01T13:27:14;10.98;;;5.28;;
25721;SDS011;13578;53.450;15.496;2023-04-01T13:34:32;5.82;;;4.43;;
25721;SDS011;13578;53.450;15.496;2023-04-01T13:37:56;8.75;;;4.65;;
25721;SDS011;13578;53.450;15.496;2023-04-01T13:44:51;4.28;;;3.88;;
25721;SDS011;13578;53.450;15.496;2023-04-01T13:55:07;4.00;;;3.70;;
25721;SDS011;13578;53.450;15.496;2023-04-01T13:58:43;10.20;;;3.75;;
25721;SDS011;13578;53.450;15.496;2023-04-01T14:08:55;4.35;;;3.95;;
25721;SDS011;13578;53.450;15.496;2023-04-01T14:12:05;6.20;;;4.35;;
25721;SDS011;13578;53.450;15.496;2023-04-01T14:18:42;5.43;;;4.85;;
25721;SDS011;13578;53.450;15.496;2023-04-01T14:22:14;6.93;;;4.78;;
25721;SDS011;13578;53.450;15.496;2023-04-01T14:32:16;7.03;;;3.80;;
25721;SDS011;13578;53.450;15.496;2023-04-01T14:48:58;8.45;;;4.95;;
25721;SDS011;13578;53.450;15.496;2023-04-01T14:52:13;5.05;;;4.25;;
25721;SDS011;13578;53.450;15.496;2023-04-01T14:55:27;6.85;;;4.80;;
25721;SDS011;13578;53.450;15.496;2023-04-01T14:58:42;13.02;;;5.85;;
25721;SDS011;13578;53.450;15.496;2023-04-01T15:01:47;7.70;;;5.25;;
25721;SDS011;13578;53.450;15.496;2023-04-01T15:05:12;5.68;;;4.93;;
25721;SDS011;13578;53.450;15.496;2023-04-01T15:08:23;9.03;;;5.53;;
25721;SDS011;13578;53.450;15.496;2023-04-01T15:15:09;6.82;;;5.47;;
25721;SDS011;13578;53.450;15.496;2023-04-01T15:18:53;8.93;;;5.43;;
25721;SDS011;13578;53.450;15.496;2023-04-01T15:25:51;11.25;;;4.65;;
25721;SDS011;13578;53.450;15.496;2023-04-01T15:29:30;7.05;;;5.95;;
25721;SDS011;13578;53.450;15.496;2023-04-01T15:32:49;9.18;;;5.32;;
25721;SDS011;13578;53.450;15.496;2023-04-01T15:36:24;7.15;;;5.82;;
25721;SDS011;13578;53.450;15.496;2023-04-01T15:39:39;6.40;;;5.35;;
25721;SDS011;13578;53.450;15.496;2023-04-01T15:43:06;5.90;;;5.40;;
25721;SDS011;13578;53.450;15.496;2023-04-01T15:46:44;10.98;;;6.22;;
25721;SDS011;13578;53.450;15.496;2023-04-01T15:53:27;10.93;;;6.07;;
25721;SDS011;13578;53.450;15.496;2023-04-01T15:56:43;9.70;;;5.72;;
25721;SDS011;13578;53.450;15.496;2023-04-01T16:03:39;6.55;;;5.45;;
25721;SDS011;13578;53.450;15.496;2023-04-01T16:10:33;11.52;;;6.35;;
25721;SDS011;13578;53.450;15.496;2023-04-01T16:17:20;15.07;;;6.93;;
25721;SDS011;13578;53.450;15.496;2023-04-01T16:23:58;19.08;;;7.53;;
25721;SDS011;13578;53.450;15.496;2023-04-01T16:27:04;12.98;;;7.03;;
25721;SDS011;13578;53.450;15.496;2023-04-01T16:30:26;17.08;;;6.65;;
25721;SDS011;13578;53.450;15.496;2023-04-01T16:33:49;13.05;;;7.65;;
25721;SDS011;13578;53.450;15.496;2023-04-01T16:43:39;16.45;;;6.80;;
25721;SDS011;13578;53.450;15.496;2023-04-01T16:46:46;13.68;;;7.53;;
25721;SDS011;13578;53.450;15.496;2023-04-01T16:56:24;12.70;;;6.47;;
25721;SDS011;13578;53.450;15.496;2023-04-01T16:59:56;17.90;;;7.32;;
25721;SDS011;13578;53.450;15.496;2023-04-01T17:03:26;10.60;;;7.47;;
25721;SDS011;13578;53.450;15.496;2023-04-01T17:23:21;12.10;;;7.38;;
25721;SDS011;13578;53.450;15.496;2023-04-01T17:33:14;10.70;;;5.60;;
25721;SDS011;13578;53.450;15.496;2023-04-01T17:36:36;8.75;;;5.38;;
25721;SDS011;13578;53.450;15.496;2023-04-01T17:54:12;6.95;;;5.22;;
25721;SDS011;13578;53.450;15.496;2023-04-01T18:00:30;6.38;;;5.30;;
25721;SDS011;13578;53.450;15.496;2023-04-01T18:27:36;11.95;;;6.07;;
25721;SDS011;13578;53.450;15.496;2023-04-01T18:30:40;11.55;;;5.70;;
25721;SDS011;13578;53.450;15.496;2023-04-01T18:36:57;13.15;;;6.13;;
25721;SDS011;13578;53.450;15.496;2023-04-01T18:50:30;12.45;;;5.85;;
25721;SDS011;13578;53.450;15.496;2023-04-01T18:57:15;11.18;;;5.65;;
25721;SDS011;13578;53.450;15.496;2023-04-01T19:00:32;7.38;;;6.20;;
25721;SDS011;13578;53.450;15.496;2023-04-01T19:03:54;13.57;;;6.47;;
25721;SDS011;13578;53.450;15.496;2023-04-01T19:07:01;12.50;;;5.65;;
25721;SDS011;13578;53.450;15.496;2023-04-01T19:20:09;12.60;;;5.65;;
25721;SDS011;13578;53.450;15.496;2023-04-01T19:26:58;9.23;;;6.30;;
25721;SDS011;13578;53.450;15.496;2023-04-01T19:30:30;16.38;;;6.10;;
25721;SDS011;13578;53.450;15.496;2023-04-01T19:37:05;8.57;;;5.70;;
25721;SDS011;13578;53.450;15.496;2023-04-01T19:40:21;9.77;;;4.95;;
25721;SDS011;13578;53.450;15.496;2023-04-01T19:43:51;14.32;;;5.90;;
25721;SDS011;13578;53.450;15.496;2023-04-01T19:47:09;10.07;;;5.85;;
25721;SDS011;13578;53.450;15.496;2023-04-01T19:54:04;10.38;;;5.25;;
25721;SDS011;13578;53.450;15.496;2023-04-01T20:00:28;6.35;;;5.60;;
25721;SDS011;13578;53.450;15.496;2023-04-01T20:10:13;5.63;;;4.80;;
25721;SDS011;13578;53.450;15.496;2023-04-01T20:26:12;9.15;;;5.18;;
25721;SDS011;13578;53.450;15.496;2023-04-01T20:46:22;10.98;;;6.80;;
25721;SDS011;13578;53.450;15.496;2023-04-01T20:49:40;8.63;;;6.00;;
25721;SDS011;13578;53.450;15.496;2023-04-01T21:00:11;7.45;;;5.78;;
25721;SDS011;13578;53.450;15.496;2023-04-01T21:07:33;6.10;;;4.60;;
25721;SDS011;13578;53.450;15.496;2023-04-01T21:37:45;5.28;;;4.78;;
25721;SDS011;13578;53.450;15.496;2023-04-01T21:40:39;4.07;;;3.75;;
25721;SDS011;13578;53.450;15.496;2023-04-01T21:43:53;8.23;;;4.82;;
25721;SDS011;13578;53.450;15.496;2023-04-01T22:00:09;11.98;;;4.45;;
25721;SDS011;13578;53.450;15.496;2023-04-01T22:06:43;7.63;;;5.03;;
25721;SDS011;13578;53.450;15.496;2023-04-01T22:13:26;5.18;;;4.68;;
25721;SDS011;13578;53.450;15.496;2023-04-01T22:20:03;7.22;;;4.85;;
25721;SDS011;13578;53.450;15.496;2023-04-01T22:37:48;8.02;;;5.57;;
25721;SDS011;13578;53.450;15.496;2023-04-01T22:41:33;6.43;;;4.80;;
25721;SDS011;13578;53.450;15.496;2023-04-01T22:45:05;10.60;;;4.68;;
25721;SDS011;13578;53.450;15.496;2023-04-01T22:48:35;8.40;;;4.90;;
25721;SDS011;13578;53.450;15.496;2023-04-01T22:58:28;9.15;;;5.18;;
25721;SDS011;13578;53.450;15.496;2023-04-01T23:01:33;5.43;;;4.93;;
25721;SDS011;13578;53.450;15.496;2023-04-01T23:04:40;5.13;;;4.63;;
25721;SDS011;13578;53.450;15.496;2023-04-01T23:07:45;5.00;;;4.57;;
25721;SDS011;13578;53.450;15.496;2023-04-01T23:15:28;6.03;;;4.25;;
25721;SDS011;13578;53.450;15.496;2023-04-01T23:18:03;11.15;;;4.88;;
25721;SDS011;13578;53.450;15.496;2023-04-01T23:21:10;7.63;;;4.68;;
25721;SDS011;13578;53.450;15.496;2023-04-01T23:27:30;8.27;;;4.10;;
25721;SDS011;13578;53.450;15.496;2023-04-01T23:33:40;4.93;;;4.53;;
25721;SDS011;13578;53.450;15.496;2023-04-01T23:36:51;5.05;;;4.55;;
25721;SDS011;13578;53.450;15.496;2023-04-01T23:39:55;7.18;;;4.47;;
25721;SDS011;13578;53.450;15.496;2023-04-01T23:42:57;11.75;;;4.40;;
25721;SDS011;13578;53.450;15.496;2023-04-01T23:45:58;5.30;;;4.40;;
25721;SDS011;13578;53.450;15.496;2023-04-01T23:49:03;6.70;;;4.07;;
25721;SDS011;13578;53.450;15.496;2023-04-01T23:52:34;5.78;;;4.80;;
25721;SDS011;13578;53.450;15.496;2023-04-01T23:55:35;5.35;;;3.95;;
